sensor_id;sensor_type;location;lat;lon;timestamp;P1;durP1;ratioP1;P2;durP2;ratioP2
48199;SDS011;33990;44.602;10.976;2023-05-10T00:01:28;3.72;;;2.45;;
48199;SDS011;33990;44.602;10.976;2023-05-10T00:03:56;3.80;;;2.35;;
48199;SDS011;33990;44.602;10.976;2023-05-10T00:06:23;3.67;;;2.42;;
48199;SDS011;33990;44.602;10.976;2023-05-10T00:08:51;2.92;;;2.13;;
48199;SDS011;33990;44.602;10.976;2023-05-10T00:11:18;3.67;;;2.50;;
48199;SDS011;33990;44.602;10.976;2023-05-10T00:13:48;3.78;;;2.22;;
48199;SDS011;33990;44.602;10.976;2023-05-10T00:16:16;3.67;;;2.08;;
48199;SDS011;33990;44.602;10.976;2023-05-10T00:18:43;5.30;;;2.90;;
48199;SDS011;33990;44.602;10.976;2023-05-10T00:21:10;3.38;;;2.45;;
48199;SDS011;33990;44.602;10.976;2023-05-10T00:23:38;3.25;;;2.45;;
48199;SDS011;33990;44.602;10.976;2023-05-10T00:26:05;3.05;;;2.20;;
48199;SDS011;33990;44.602;10.976;2023-05-10T00:28:32;2.90;;;2.10;;
48199;SDS011;33990;44.602;10.976;2023-05-10T00:31:00;4.90;;;2.50;;
48199;SDS011;33990;44.602;10.976;2023-05-10T00:33:29;4.30;;;2.20;;
48199;SDS011;33990;44.602;10.976;2023-05-10T00:35:56;3.67;;;2.28;;
48199;SDS011;33990;44.602;10.976;2023-05-10T00:38:23;3.60;;;2.15;;
48199;SDS011;33990;44.602;10.976;2023-05-10T00:40:51;3.60;;;2.65;;
48199;SDS011;33990;44.602;10.976;2023-05-10T00:43:25;3.92;;;2.85;;
48199;SDS011;33990;44.602;10.976;2023-05-10T00:45:53;3.85;;;2.35;;
48199;SDS011;33990;44.602;10.976;2023-05-10T00:48:21;3.00;;;2.25;;
48199;SDS011;33990;44.602;10.976;2023-05-10T00:50:49;3.08;;;2.00;;
48199;SDS011;33990;44.602;10.976;2023-05-10T00:53:17;3.13;;;2.45;;
48199;SDS011;33990;44.602;10.976;2023-05-10T00:55:45;3.42;;;2.72;;
48199;SDS011;33990;44.602;10.976;2023-05-10T00:58:13;3.50;;;2.47;;
48199;SDS011;33990;44.602;10.976;2023-05-10T01:00:41;3.53;;;2.53;;
48199;SDS011;33990;44.602;10.976;2023-05-10T01:03:10;3.10;;;2.30;;
48199;SDS011;33990;44.602;10.976;2023-05-10T01:05:41;3.10;;;2.30;;
48199;SDS011;33990;44.602;10.976;2023-05-10T01:08:08;3.03;;;2.22;;
48199;SDS011;33990;44.602;10.976;2023-05-10T01:10:35;4.30;;;2.78;;
48199;SDS011;33990;44.602;10.976;2023-05-10T01:13:03;6.93;;;2.50;;
48199;SDS011;33990;44.602;10.976;2023-05-10T01:15:30;5.38;;;2.92;;
48199;SDS011;33990;44.602;10.976;2023-05-10T01:17:58;4.05;;;3.03;;
48199;SDS011;33990;44.602;10.976;2023-05-10T01:20:27;4.75;;;2.75;;
48199;SDS011;33990;44.602;10.976;2023-05-10T01:32:14;3.72;;;2.30;;
48199;SDS011;33990;44.602;10.976;2023-05-10T01:35:07;2.92;;;1.98;;
48199;SDS011;33990;44.602;10.976;2023-05-10T01:37:45;3.67;;;2.55;;
48199;SDS011;33990;44.602;10.976;2023-05-10T01:40:30;2.80;;;1.90;;
48199;SDS011;33990;44.602;10.976;2023-05-10T01:43:04;3.50;;;2.40;;
48199;SDS011;33990;44.602;10.976;2023-05-10T01:48:39;3.58;;;2.63;;
48199;SDS011;33990;44.602;10.976;2023-05-10T01:51:19;5.05;;;2.20;;
48199;SDS011;33990;44.602;10.976;2023-05-10T01:53:49;3.88;;;2.42;;
48199;SDS011;33990;44.602;10.976;2023-05-10T01:56:21;3.50;;;2.30;;
48199;SDS011;33990;44.602;10.976;2023-05-10T01:58:52;3.80;;;2.55;;
48199;SDS011;33990;44.602;10.976;2023-05-10T02:01:21;3.10;;;2.40;;
48199;SDS011;33990;44.602;10.976;2023-05-10T02:03:50;4.07;;;2.95;;
48199;SDS011;33990;44.602;10.976;2023-05-10T02:06:20;5.63;;;2.83;;
48199;SDS011;33990;44.602;10.976;2023-05-10T02:08:51;3.40;;;2.30;;
48199;SDS011;33990;44.602;10.976;2023-05-10T02:11:20;3.70;;;2.40;;
48199;SDS011;33990;44.602;10.976;2023-05-10T02:13:49;4.53;;;2.08;;
48199;SDS011;33990;44.602;10.976;2023-05-10T02:16:18;3.78;;;2.58;;
48199;SDS011;33990;44.602;10.976;2023-05-10T02:18:50;3.67;;;2.10;;
48199;SDS011;33990;44.602;10.976;2023-05-10T02:21:20;3.25;;;2.28;;
48199;SDS011;33990;44.602;10.976;2023-05-10T02:23:48;3.63;;;3.08;;
48199;SDS011;33990;44.602;10.976;2023-05-10T02:26:17;3.22;;;2.20;;
48199;SDS011;33990;44.602;10.976;2023-05-10T02:28:48;3.28;;;2.63;;
48199;SDS011;33990;44.602;10.976;2023-05-10T02:31:16;3.05;;;2.10;;
48199;SDS011;33990;44.602;10.976;2023-05-10T02:33:45;3.80;;;2.47;;
48199;SDS011;33990;44.602;10.976;2023-05-10T02:36:12;3.13;;;2.10;;
48199;SDS011;33990;44.602;10.976;2023-05-10T02:38:42;2.90;;;2.17;;
48199;SDS011;33990;44.602;10.976;2023-05-10T02:41:11;4.07;;;2.22;;
48199;SDS011;33990;44.602;10.976;2023-05-10T02:43:40;4.57;;;2.83;;
48199;SDS011;33990;44.602;10.976;2023-05-10T02:46:08;3.17;;;2.00;;
48199;SDS011;33990;44.602;10.976;2023-05-10T02:48:36;5.22;;;2.78;;
48199;SDS011;33990;44.602;10.976;2023-05-10T02:51:05;4.10;;;2.10;;
48199;SDS011;33990;44.602;10.976;2023-05-10T02:53:35;3.50;;;2.38;;
48199;SDS011;33990;44.602;10.976;2023-05-10T02:56:07;4.10;;;2.20;;
48199;SDS011;33990;44.602;10.976;2023-05-10T02:58:42;4.20;;;2.50;;
48199;SDS011;33990;44.602;10.976;2023-05-10T03:01:09;4.28;;;2.47;;
48199;SDS011;33990;44.602;10.976;2023-05-10T03:03:37;4.63;;;2.00;;
48199;SDS011;33990;44.602;10.976;2023-05-10T03:06:05;3.75;;;2.53;;
48199;SDS011;33990;44.602;10.976;2023-05-10T03:08:32;3.20;;;2.00;;
48199;SDS011;33990;44.602;10.976;2023-05-10T03:13:29;3.58;;;2.45;;
48199;SDS011;33990;44.602;10.976;2023-05-10T03:16:07;3.88;;;2.30;;
48199;SDS011;33990;44.602;10.976;2023-05-10T03:18:44;4.40;;;2.15;;
48199;SDS011;33990;44.602;10.976;2023-05-10T03:21:17;3.58;;;2.60;;
48199;SDS011;33990;44.602;10.976;2023-05-10T03:23:59;4.22;;;2.53;;
48199;SDS011;33990;44.602;10.976;2023-05-10T03:26:36;4.15;;;2.78;;
48199;SDS011;33990;44.602;10.976;2023-05-10T03:29:13;3.10;;;2.40;;
48199;SDS011;33990;44.602;10.976;2023-05-10T03:31:42;3.58;;;2.30;;
48199;SDS011;33990;44.602;10.976;2023-05-10T03:34:10;3.17;;;2.20;;
48199;SDS011;33990;44.602;10.976;2023-05-10T03:36:38;3.35;;;2.40;;
48199;SDS011;33990;44.602;10.976;2023-05-10T03:39:05;4.32;;;2.30;;
48199;SDS011;33990;44.602;10.976;2023-05-10T03:41:33;5.18;;;2.20;;
48199;SDS011;33990;44.602;10.976;2023-05-10T03:44:00;3.53;;;2.28;;
48199;SDS011;33990;44.602;10.976;2023-05-10T03:46:28;4.05;;;2.28;;
48199;SDS011;33990;44.602;10.976;2023-05-10T03:48:55;3.03;;;2.47;;
48199;SDS011;33990;44.602;10.976;2023-05-10T03:51:23;5.10;;;2.40;;
48199;SDS011;33990;44.602;10.976;2023-05-10T03:53:54;3.63;;;2.30;;
48199;SDS011;33990;44.602;10.976;2023-05-10T03:56:23;3.70;;;2.05;;
48199;SDS011;33990;44.602;10.976;2023-05-10T03:58:50;3.63;;;2.15;;
48199;SDS011;33990;44.602;10.976;2023-05-10T04:01:17;3.58;;;2.53;;
48199;SDS011;33990;44.602;10.976;2023-05-10T04:03:46;3.92;;;2.40;;
48199;SDS011;33990;44.602;10.976;2023-05-10T04:06:13;3.92;;;2.42;;
48199;SDS011;33990;44.602;10.976;2023-05-10T04:08:41;2.88;;;1.75;;
48199;SDS011;33990;44.602;10.976;2023-05-10T04:11:11;3.45;;;1.92;;
48199;SDS011;33990;44.602;10.976;2023-05-10T04:13:39;3.80;;;2.50;;
48199;SDS011;33990;44.602;10.976;2023-05-10T04:16:07;3.10;;;1.92;;
48199;SDS011;33990;44.602;10.976;2023-05-10T04:18:34;4.15;;;2.03;;
48199;SDS011;33990;44.602;10.976;2023-05-10T04:21:01;4.22;;;2.13;;
48199;SDS011;33990;44.602;10.976;2023-05-10T04:23:29;3.60;;;2.00;;
48199;SDS011;33990;44.602;10.976;2023-05-10T04:26:00;5.22;;;2.42;;
48199;SDS011;33990;44.602;10.976;2023-05-10T04:28:28;5.03;;;2.90;;
48199;SDS011;33990;44.602;10.976;2023-05-10T04:31:05;2.85;;;2.10;;
48199;SDS011;33990;44.602;10.976;2023-05-10T04:33:34;3.35;;;2.00;;
48199;SDS011;33990;44.602;10.976;2023-05-10T04:36:02;3.20;;;2.17;;
48199;SDS011;33990;44.602;10.976;2023-05-10T04:38:30;3.88;;;1.90;;
48199;SDS011;33990;44.602;10.976;2023-05-10T04:41:07;2.70;;;1.73;;
48199;SDS011;33990;44.602;10.976;2023-05-10T04:43:35;3.75;;;2.30;;
48199;SDS011;33990;44.602;10.976;2023-05-10T04:46:04;3.05;;;2.10;;
48199;SDS011;33990;44.602;10.976;2023-05-10T04:48:32;2.72;;;2.03;;
48199;SDS011;33990;44.602;10.976;2023-05-10T04:51:00;3.97;;;2.08;;
48199;SDS011;33990;44.602;10.976;2023-05-10T04:53:28;3.70;;;2.17;;
48199;SDS011;33990;44.602;10.976;2023-05-10T04:55:55;3.42;;;2.08;;
48199;SDS011;33990;44.602;10.976;2023-05-10T04:58:22;3.58;;;2.08;;
48199;SDS011;33990;44.602;10.976;2023-05-10T05:00:50;2.80;;;2.13;;
48199;SDS011;33990;44.602;10.976;2023-05-10T05:03:17;3.55;;;2.10;;
48199;SDS011;33990;44.602;10.976;2023-05-10T05:05:44;4.55;;;2.28;;
48199;SDS011;33990;44.602;10.976;2023-05-10T05:08:12;3.50;;;1.80;;
48199;SDS011;33990;44.602;10.976;2023-05-10T05:10:40;2.85;;;1.98;;
48199;SDS011;33990;44.602;10.976;2023-05-10T05:13:07;3.13;;;1.98;;
48199;SDS011;33990;44.602;10.976;2023-05-10T05:15:34;6.82;;;2.63;;
48199;SDS011;33990;44.602;10.976;2023-05-10T05:18:02;5.90;;;2.40;;
48199;SDS011;33990;44.602;10.976;2023-05-10T05:20:31;2.80;;;1.90;;
48199;SDS011;33990;44.602;10.976;2023-05-10T05:22:59;4.10;;;1.83;;
48199;SDS011;33990;44.602;10.976;2023-05-10T05:25:27;3.38;;;2.30;;
48199;SDS011;33990;44.602;10.976;2023-05-10T05:27:55;2.83;;;2.17;;
48199;SDS011;33990;44.602;10.976;2023-05-10T05:30:22;3.05;;;2.03;;
48199;SDS011;33990;44.602;10.976;2023-05-10T05:32:49;3.60;;;1.92;;
48199;SDS011;33990;44.602;10.976;2023-05-10T05:35:17;3.55;;;2.25;;
48199;SDS011;33990;44.602;10.976;2023-05-10T05:37:45;3.08;;;1.88;;
48199;SDS011;33990;44.602;10.976;2023-05-10T05:40:13;3.42;;;2.30;;
48199;SDS011;33990;44.602;10.976;2023-05-10T05:42:41;2.63;;;1.75;;
48199;SDS011;33990;44.602;10.976;2023-05-10T05:45:08;3.20;;;1.90;;
48199;SDS011;33990;44.602;10.976;2023-05-10T05:47:40;4.07;;;2.22;;
48199;SDS011;33990;44.602;10.976;2023-05-10T05:50:08;4.38;;;2.10;;
48199;SDS011;33990;44.602;10.976;2023-05-10T05:52:35;4.45;;;2.17;;
48199;SDS011;33990;44.602;10.976;2023-05-10T05:55:03;5.80;;;2.20;;
48199;SDS011;33990;44.602;10.976;2023-05-10T05:57:30;4.80;;;2.33;;
48199;SDS011;33990;44.602;10.976;2023-05-10T05:59:58;4.25;;;2.15;;
48199;SDS011;33990;44.602;10.976;2023-05-10T06:02:26;3.13;;;1.75;;
48199;SDS011;33990;44.602;10.976;2023-05-10T06:04:53;8.13;;;1.95;;
48199;SDS011;33990;44.602;10.976;2023-05-10T06:07:21;2.95;;;1.90;;
48199;SDS011;33990;44.602;10.976;2023-05-10T06:09:48;4.97;;;1.80;;
48199;SDS011;33990;44.602;10.976;2023-05-10T06:12:15;2.92;;;1.83;;
48199;SDS011;33990;44.602;10.976;2023-05-10T06:14:42;3.20;;;1.88;;
48199;SDS011;33990;44.602;10.976;2023-05-10T06:17:10;3.42;;;1.90;;
48199;SDS011;33990;44.602;10.976;2023-05-10T06:19:37;3.45;;;1.95;;
48199;SDS011;33990;44.602;10.976;2023-05-10T06:22:05;3.63;;;1.95;;
48199;SDS011;33990;44.602;10.976;2023-05-10T06:24:32;3.70;;;1.95;;
48199;SDS011;33990;44.602;10.976;2023-05-10T06:26:59;3.45;;;1.80;;
48199;SDS011;33990;44.602;10.976;2023-05-10T06:29:27;4.65;;;2.03;;
48199;SDS011;33990;44.602;10.976;2023-05-10T06:31:54;6.22;;;2.28;;
48199;SDS011;33990;44.602;10.976;2023-05-10T06:34:21;4.70;;;2.15;;
48199;SDS011;33990;44.602;10.976;2023-05-10T06:36:49;3.72;;;2.20;;
48199;SDS011;33990;44.602;10.976;2023-05-10T06:39:16;3.10;;;2.15;;
48199;SDS011;33990;44.602;10.976;2023-05-10T06:41:43;5.72;;;2.55;;
48199;SDS011;33990;44.602;10.976;2023-05-10T06:44:11;6.57;;;2.47;;
48199;SDS011;33990;44.602;10.976;2023-05-10T06:46:38;3.88;;;2.03;;
48199;SDS011;33990;44.602;10.976;2023-05-10T06:49:05;5.97;;;2.30;;
48199;SDS011;33990;44.602;10.976;2023-05-10T06:51:32;3.50;;;2.15;;
48199;SDS011;33990;44.602;10.976;2023-05-10T06:54:00;4.85;;;2.55;;
48199;SDS011;33990;44.602;10.976;2023-05-10T06:56:28;5.43;;;2.33;;
48199;SDS011;33990;44.602;10.976;2023-05-10T06:58:56;5.32;;;2.20;;
48199;SDS011;33990;44.602;10.976;2023-05-10T07:01:23;3.25;;;2.13;;
48199;SDS011;33990;44.602;10.976;2023-05-10T07:03:50;5.13;;;2.00;;
48199;SDS011;33990;44.602;10.976;2023-05-10T07:06:18;8.63;;;2.17;;
48199;SDS011;33990;44.602;10.976;2023-05-10T07:08:59;6.40;;;2.22;;
48199;SDS011;33990;44.602;10.976;2023-05-10T07:11:27;3.33;;;2.13;;
48199;SDS011;33990;44.602;10.976;2023-05-10T07:13:54;4.22;;;2.10;;
48199;SDS011;33990;44.602;10.976;2023-05-10T07:16:21;5.45;;;2.33;;
48199;SDS011;33990;44.602;10.976;2023-05-10T07:18:49;5.05;;;2.15;;
48199;SDS011;33990;44.602;10.976;2023-05-10T07:21:18;4.07;;;2.40;;
48199;SDS011;33990;44.602;10.976;2023-05-10T07:23:46;4.45;;;1.95;;
48199;SDS011;33990;44.602;10.976;2023-05-10T07:26:13;3.22;;;1.70;;
48199;SDS011;33990;44.602;10.976;2023-05-10T07:28:41;4.13;;;2.00;;
48199;SDS011;33990;44.602;10.976;2023-05-10T07:31:09;3.92;;;2.40;;
48199;SDS011;33990;44.602;10.976;2023-05-10T07:33:36;3.88;;;2.10;;
48199;SDS011;33990;44.602;10.976;2023-05-10T07:36:03;4.75;;;2.22;;
48199;SDS011;33990;44.602;10.976;2023-05-10T07:38:30;2.92;;;1.65;;
48199;SDS011;33990;44.602;10.976;2023-05-10T07:40:58;2.70;;;1.85;;
48199;SDS011;33990;44.602;10.976;2023-05-10T07:43:25;5.75;;;2.47;;
48199;SDS011;33990;44.602;10.976;2023-05-10T07:45:52;4.90;;;2.42;;
48199;SDS011;33990;44.602;10.976;2023-05-10T07:48:22;5.18;;;2.28;;
48199;SDS011;33990;44.602;10.976;2023-05-10T07:50:49;3.95;;;2.05;;
48199;SDS011;33990;44.602;10.976;2023-05-10T07:53:16;3.85;;;1.95;;
48199;SDS011;33990;44.602;10.976;2023-05-10T07:55:49;5.97;;;2.28;;
48199;SDS011;33990;44.602;10.976;2023-05-10T07:58:18;4.40;;;2.17;;
48199;SDS011;33990;44.602;10.976;2023-05-10T08:00:45;2.50;;;1.80;;
48199;SDS011;33990;44.602;10.976;2023-05-10T08:03:13;3.15;;;1.90;;
48199;SDS011;33990;44.602;10.976;2023-05-10T08:05:40;4.50;;;2.05;;
48199;SDS011;33990;44.602;10.976;2023-05-10T08:08:08;4.78;;;2.15;;
48199;SDS011;33990;44.602;10.976;2023-05-10T08:10:35;3.65;;;2.08;;
48199;SDS011;33990;44.602;10.976;2023-05-10T08:13:02;4.45;;;2.10;;
48199;SDS011;33990;44.602;10.976;2023-05-10T08:15:30;4.20;;;2.45;;
48199;SDS011;33990;44.602;10.976;2023-05-10T08:17:57;3.42;;;1.90;;
48199;SDS011;33990;44.602;10.976;2023-05-10T08:20:24;4.97;;;2.10;;
48199;SDS011;33990;44.602;10.976;2023-05-10T08:22:52;5.00;;;2.40;;
48199;SDS011;33990;44.602;10.976;2023-05-10T08:25:19;2.90;;;2.03;;
48199;SDS011;33990;44.602;10.976;2023-05-10T08:27:47;2.90;;;1.95;;
48199;SDS011;33990;44.602;10.976;2023-05-10T08:30:14;2.35;;;1.77;;
48199;SDS011;33990;44.602;10.976;2023-05-10T08:32:41;4.13;;;1.75;;
48199;SDS011;33990;44.602;10.976;2023-05-10T08:35:09;5.13;;;2.45;;
48199;SDS011;33990;44.602;10.976;2023-05-10T08:37:36;4.32;;;2.20;;
48199;SDS011;33990;44.602;10.976;2023-05-10T08:40:04;3.30;;;2.30;;
48199;SDS011;33990;44.602;10.976;2023-05-10T08:42:32;3.28;;;2.15;;
48199;SDS011;33990;44.602;10.976;2023-05-10T08:45:03;3.50;;;1.90;;
48199;SDS011;33990;44.602;10.976;2023-05-10T08:47:31;2.80;;;2.03;;
48199;SDS011;33990;44.602;10.976;2023-05-10T08:49:59;3.42;;;1.90;;
48199;SDS011;33990;44.602;10.976;2023-05-10T08:52:30;3.15;;;2.08;;
48199;SDS011;33990;44.602;10.976;2023-05-10T08:54:58;3.83;;;2.10;;
48199;SDS011;33990;44.602;10.976;2023-05-10T08:57:26;3.72;;;2.00;;
48199;SDS011;33990;44.602;10.976;2023-05-10T08:59:53;5.57;;;2.00;;
48199;SDS011;33990;44.602;10.976;2023-05-10T09:02:20;5.07;;;2.63;;
48199;SDS011;33990;44.602;10.976;2023-05-10T09:04:50;7.03;;;2.45;;
48199;SDS011;33990;44.602;10.976;2023-05-10T09:07:17;3.63;;;2.10;;
48199;SDS011;33990;44.602;10.976;2023-05-10T09:09:46;3.10;;;2.40;;
48199;SDS011;33990;44.602;10.976;2023-05-10T09:12:13;3.45;;;2.05;;
48199;SDS011;33990;44.602;10.976;2023-05-10T09:14:43;3.50;;;2.30;;
48199;SDS011;33990;44.602;10.976;2023-05-10T09:17:11;3.97;;;2.10;;
48199;SDS011;33990;44.602;10.976;2023-05-10T09:19:39;3.50;;;2.50;;
48199;SDS011;33990;44.602;10.976;2023-05-10T09:22:06;3.53;;;2.13;;
48199;SDS011;33990;44.602;10.976;2023-05-10T09:24:34;3.90;;;2.00;;
48199;SDS011;33990;44.602;10.976;2023-05-10T09:27:01;3.65;;;2.22;;
48199;SDS011;33990;44.602;10.976;2023-05-10T09:29:38;2.92;;;1.90;;
48199;SDS011;33990;44.602;10.976;2023-05-10T09:32:07;3.22;;;2.00;;
48199;SDS011;33990;44.602;10.976;2023-05-10T09:34:34;3.00;;;2.10;;
48199;SDS011;33990;44.602;10.976;2023-05-10T09:37:02;2.42;;;1.73;;
48199;SDS011;33990;44.602;10.976;2023-05-10T09:39:32;3.72;;;2.15;;
48199;SDS011;33990;44.602;10.976;2023-05-10T09:42:04;2.95;;;1.98;;
48199;SDS011;33990;44.602;10.976;2023-05-10T09:44:35;4.28;;;1.95;;
48199;SDS011;33990;44.602;10.976;2023-05-10T09:47:04;3.75;;;2.20;;
48199;SDS011;33990;44.602;10.976;2023-05-10T09:49:32;3.83;;;2.00;;
48199;SDS011;33990;44.602;10.976;2023-05-10T09:52:03;3.90;;;2.22;;
48199;SDS011;33990;44.602;10.976;2023-05-10T09:54:32;4.10;;;1.90;;
48199;SDS011;33990;44.602;10.976;2023-05-10T09:57:00;2.85;;;1.73;;
48199;SDS011;33990;44.602;10.976;2023-05-10T09:59:28;3.78;;;1.98;;
48199;SDS011;33990;44.602;10.976;2023-05-10T10:01:57;3.05;;;1.83;;
48199;SDS011;33990;44.602;10.976;2023-05-10T10:04:26;3.03;;;2.25;;
48199;SDS011;33990;44.602;10.976;2023-05-10T10:07:01;4.13;;;2.50;;
48199;SDS011;33990;44.602;10.976;2023-05-10T10:09:29;3.47;;;2.28;;
48199;SDS011;33990;44.602;10.976;2023-05-10T10:11:57;3.80;;;2.20;;
48199;SDS011;33990;44.602;10.976;2023-05-10T10:14:24;4.03;;;1.88;;
48199;SDS011;33990;44.602;10.976;2023-05-10T10:16:52;3.67;;;2.08;;
48199;SDS011;33990;44.602;10.976;2023-05-10T10:19:34;3.78;;;2.03;;
48199;SDS011;33990;44.602;10.976;2023-05-10T10:22:03;2.90;;;2.13;;
48199;SDS011;33990;44.602;10.976;2023-05-10T10:24:30;6.78;;;2.40;;
48199;SDS011;33990;44.602;10.976;2023-05-10T10:27:01;2.60;;;1.65;;
48199;SDS011;33990;44.602;10.976;2023-05-10T10:29:41;3.50;;;1.92;;
48199;SDS011;33990;44.602;10.976;2023-05-10T10:35:15;2.88;;;2.00;;
48199;SDS011;33990;44.602;10.976;2023-05-10T10:37:44;3.67;;;1.90;;
48199;SDS011;33990;44.602;10.976;2023-05-10T10:40:25;4.70;;;2.53;;
48199;SDS011;33990;44.602;10.976;2023-05-10T10:48:43;3.40;;;2.10;;
48199;SDS011;33990;44.602;10.976;2023-05-10T10:51:15;3.35;;;1.95;;
48199;SDS011;33990;44.602;10.976;2023-05-10T10:53:42;3.05;;;2.10;;
48199;SDS011;33990;44.602;10.976;2023-05-10T10:56:11;2.97;;;1.63;;
48199;SDS011;33990;44.602;10.976;2023-05-10T10:58:40;4.07;;;1.75;;
48199;SDS011;33990;44.602;10.976;2023-05-10T11:01:09;4.07;;;2.33;;
48199;SDS011;33990;44.602;10.976;2023-05-10T11:03:37;3.10;;;2.15;;
48199;SDS011;33990;44.602;10.976;2023-05-10T11:06:05;5.72;;;2.22;;
48199;SDS011;33990;44.602;10.976;2023-05-10T11:08:32;4.78;;;2.17;;
48199;SDS011;33990;44.602;10.976;2023-05-10T11:11:04;3.00;;;2.08;;
48199;SDS011;33990;44.602;10.976;2023-05-10T11:19:11;3.30;;;1.90;;
48199;SDS011;33990;44.602;10.976;2023-05-10T11:24:17;3.55;;;1.75;;
48199;SDS011;33990;44.602;10.976;2023-05-10T11:26:46;4.10;;;2.03;;
48199;SDS011;33990;44.602;10.976;2023-05-10T11:29:16;4.78;;;1.83;;
48199;SDS011;33990;44.602;10.976;2023-05-10T11:31:44;4.53;;;2.10;;
48199;SDS011;33990;44.602;10.976;2023-05-10T11:34:22;3.03;;;1.63;;
48199;SDS011;33990;44.602;10.976;2023-05-10T11:36:58;5.35;;;1.58;;
48199;SDS011;33990;44.602;10.976;2023-05-10T11:39:26;3.75;;;1.85;;
48199;SDS011;33990;44.602;10.976;2023-05-10T11:41:55;2.72;;;1.75;;
48199;SDS011;33990;44.602;10.976;2023-05-10T11:44:24;2.80;;;2.05;;
48199;SDS011;33990;44.602;10.976;2023-05-10T11:47:02;2.38;;;1.63;;
48199;SDS011;33990;44.602;10.976;2023-05-10T11:49:30;4.18;;;1.88;;
48199;SDS011;33990;44.602;10.976;2023-05-10T11:52:07;4.63;;;1.92;;
48199;SDS011;33990;44.602;10.976;2023-05-10T11:54:35;4.65;;;2.13;;
48199;SDS011;33990;44.602;10.976;2023-05-10T11:57:03;3.25;;;1.95;;
48199;SDS011;33990;44.602;10.976;2023-05-10T11:59:30;3.85;;;1.70;;
48199;SDS011;33990;44.602;10.976;2023-05-10T12:01:58;4.40;;;2.17;;
48199;SDS011;33990;44.602;10.976;2023-05-10T12:04:25;5.05;;;1.65;;
48199;SDS011;33990;44.602;10.976;2023-05-10T12:06:54;2.88;;;1.67;;
48199;SDS011;33990;44.602;10.976;2023-05-10T12:09:23;3.30;;;1.40;;
48199;SDS011;33990;44.602;10.976;2023-05-10T12:12:08;4.00;;;1.50;;
48199;SDS011;33990;44.602;10.976;2023-05-10T12:14:36;3.60;;;1.63;;
48199;SDS011;33990;44.602;10.976;2023-05-10T12:17:04;2.88;;;1.70;;
48199;SDS011;33990;44.602;10.976;2023-05-10T12:19:37;3.95;;;1.80;;
48199;SDS011;33990;44.602;10.976;2023-05-10T12:22:05;3.80;;;1.92;;
48199;SDS011;33990;44.602;10.976;2023-05-10T12:24:36;4.30;;;2.03;;
48199;SDS011;33990;44.602;10.976;2023-05-10T12:27:05;3.03;;;1.90;;
48199;SDS011;33990;44.602;10.976;2023-05-10T12:29:35;2.70;;;1.70;;
48199;SDS011;33990;44.602;10.976;2023-05-10T12:32:03;3.47;;;1.90;;
48199;SDS011;33990;44.602;10.976;2023-05-10T12:34:31;4.13;;;1.77;;
48199;SDS011;33990;44.602;10.976;2023-05-10T12:37:03;3.20;;;1.80;;
48199;SDS011;33990;44.602;10.976;2023-05-10T12:40:04;2.97;;;1.67;;
48199;SDS011;33990;44.602;10.976;2023-05-10T12:42:24;3.47;;;1.30;;
48199;SDS011;33990;44.602;10.976;2023-05-10T12:45:01;3.45;;;1.80;;
48199;SDS011;33990;44.602;10.976;2023-05-10T12:47:29;2.00;;;1.35;;
48199;SDS011;33990;44.602;10.976;2023-05-10T12:49:57;2.33;;;1.70;;
48199;SDS011;33990;44.602;10.976;2023-05-10T12:52:24;3.42;;;1.92;;
48199;SDS011;33990;44.602;10.976;2023-05-10T12:54:53;2.60;;;1.48;;
48199;SDS011;33990;44.602;10.976;2023-05-10T12:57:20;3.08;;;1.42;;
48199;SDS011;33990;44.602;10.976;2023-05-10T12:59:48;3.35;;;1.63;;
48199;SDS011;33990;44.602;10.976;2023-05-10T13:02:15;2.80;;;1.40;;
48199;SDS011;33990;44.602;10.976;2023-05-10T13:04:44;4.40;;;2.25;;
48199;SDS011;33990;44.602;10.976;2023-05-10T13:07:16;2.50;;;1.30;;
48199;SDS011;33990;44.602;10.976;2023-05-10T13:09:43;2.60;;;1.20;;
48199;SDS011;33990;44.602;10.976;2023-05-10T13:12:10;2.85;;;1.60;;
48199;SDS011;33990;44.602;10.976;2023-05-10T13:14:38;3.22;;;1.48;;
48199;SDS011;33990;44.602;10.976;2023-05-10T13:17:07;2.22;;;1.52;;
48199;SDS011;33990;44.602;10.976;2023-05-10T13:19:34;3.75;;;1.58;;
48199;SDS011;33990;44.602;10.976;2023-05-10T13:22:02;3.20;;;1.42;;
48199;SDS011;33990;44.602;10.976;2023-05-10T13:24:30;2.55;;;1.35;;
48199;SDS011;33990;44.602;10.976;2023-05-10T13:26:57;3.55;;;1.48;;
48199;SDS011;33990;44.602;10.976;2023-05-10T13:29:25;3.83;;;1.60;;
48199;SDS011;33990;44.602;10.976;2023-05-10T13:31:52;2.58;;;1.42;;
48199;SDS011;33990;44.602;10.976;2023-05-10T13:34:20;2.20;;;1.40;;
48199;SDS011;33990;44.602;10.976;2023-05-10T13:36:47;1.85;;;0.98;;
48199;SDS011;33990;44.602;10.976;2023-05-10T13:39:15;2.90;;;1.52;;
48199;SDS011;33990;44.602;10.976;2023-05-10T13:41:43;3.53;;;1.67;;
48199;SDS011;33990;44.602;10.976;2023-05-10T13:44:11;3.17;;;1.38;;
48199;SDS011;33990;44.602;10.976;2023-05-10T13:46:40;2.97;;;1.38;;
48199;SDS011;33990;44.602;10.976;2023-05-10T13:49:09;3.92;;;1.80;;
48199;SDS011;33990;44.602;10.976;2023-05-10T13:51:36;2.72;;;1.67;;
48199;SDS011;33990;44.602;10.976;2023-05-10T13:54:03;2.28;;;1.30;;
48199;SDS011;33990;44.602;10.976;2023-05-10T13:56:31;2.72;;;1.58;;
48199;SDS011;33990;44.602;10.976;2023-05-10T13:58:59;3.30;;;1.60;;
48199;SDS011;33990;44.602;10.976;2023-05-10T14:01:26;2.95;;;1.45;;
48199;SDS011;33990;44.602;10.976;2023-05-10T14:03:53;2.75;;;1.40;;
48199;SDS011;33990;44.602;10.976;2023-05-10T14:06:21;3.00;;;1.23;;
48199;SDS011;33990;44.602;10.976;2023-05-10T14:08:48;2.92;;;1.60;;
48199;SDS011;33990;44.602;10.976;2023-05-10T14:11:15;2.28;;;1.23;;
48199;SDS011;33990;44.602;10.976;2023-05-10T14:13:43;2.28;;;1.17;;
48199;SDS011;33990;44.602;10.976;2023-05-10T14:16:10;2.55;;;1.48;;
48199;SDS011;33990;44.602;10.976;2023-05-10T14:18:38;2.53;;;1.40;;
48199;SDS011;33990;44.602;10.976;2023-05-10T14:21:05;2.63;;;1.38;;
48199;SDS011;33990;44.602;10.976;2023-05-10T14:23:32;2.83;;;1.48;;
48199;SDS011;33990;44.602;10.976;2023-05-10T14:26:00;1.92;;;1.20;;
48199;SDS011;33990;44.602;10.976;2023-05-10T14:28:28;1.95;;;1.00;;
48199;SDS011;33990;44.602;10.976;2023-05-10T14:30:56;2.25;;;1.15;;
48199;SDS011;33990;44.602;10.976;2023-05-10T14:33:23;2.80;;;1.70;;
48199;SDS011;33990;44.602;10.976;2023-05-10T14:35:50;2.70;;;1.40;;
48199;SDS011;33990;44.602;10.976;2023-05-10T14:38:17;2.30;;;1.25;;
48199;SDS011;33990;44.602;10.976;2023-05-10T14:40:45;2.53;;;1.20;;
48199;SDS011;33990;44.602;10.976;2023-05-10T14:43:12;2.63;;;1.30;;
48199;SDS011;33990;44.602;10.976;2023-05-10T14:45:39;2.55;;;1.02;;
48199;SDS011;33990;44.602;10.976;2023-05-10T14:48:07;1.98;;;1.20;;
48199;SDS011;33990;44.602;10.976;2023-05-10T14:50:38;1.88;;;1.13;;
48199;SDS011;33990;44.602;10.976;2023-05-10T14:53:06;2.30;;;1.58;;
48199;SDS011;33990;44.602;10.976;2023-05-10T14:55:33;3.92;;;1.30;;
48199;SDS011;33990;44.602;10.976;2023-05-10T14:58:02;2.00;;;1.25;;
48199;SDS011;33990;44.602;10.976;2023-05-10T15:00:29;3.60;;;1.45;;
48199;SDS011;33990;44.602;10.976;2023-05-10T15:02:58;5.07;;;1.77;;
48199;SDS011;33990;44.602;10.976;2023-05-10T15:05:26;2.50;;;1.50;;
48199;SDS011;33990;44.602;10.976;2023-05-10T15:07:53;7.50;;;1.80;;
48199;SDS011;33990;44.602;10.976;2023-05-10T15:10:21;3.00;;;1.73;;
48199;SDS011;33990;44.602;10.976;2023-05-10T15:12:48;5.18;;;1.92;;
48199;SDS011;33990;44.602;10.976;2023-05-10T15:15:15;3.58;;;1.92;;